Time;durP1;ratioP1;P1;durP2;ratioP2;P2;SDS_P1;SDS_P2;PMS_P1;PMS_P2;Temp;Humidity;BMP_temperature;BMP_pressure;BME280_temperature;BME280_humidity;BME280_pressure;Samples;Min_cycle;Max_cycle;Signal;HPM_P1;HPM_P2
2022/09/23 00:01:07;;;;;;;1.40;1.30;;;;;;;;;;10280334;28;20076;-65
2022/09/23 00:06:09;;;;;;;1.40;1.30;;;;;;;;;;10281485;28;20120;-64
2022/09/23 00:11:09;;;;;;;2.08;1.80;;;;;;;;;;10282544;28;20424;-65
2022/09/23 00:16:08;;;;;;;1.90;1.77;;;;;;;;;;10279148;28;20088;-65
2022/09/23 00:21:09;;;;;;;2.20;1.50;;;;;;;;;;10279581;28;20069;-65
2022/09/23 00:26:08;;;;;;;2.38;1.52;;;;;;;;;;10287883;28;20092;-65
2022/09/23 00:31:07;;;;;;;1.90;1.73;;;;;;;;;;10297680;28;20048;-63
2022/09/23 00:36:06;;;;;;;1.45;1.35;;;;;;;;;;10281287;28;20378;-65
2022/09/23 00:41:06;;;;;;;3.95;1.70;;;;;;;;;;10286301;28;20060;-65
2022/09/23 00:46:06;;;;;;;2.95;1.70;;;;;;;;;;10299962;28;20057;-64
2022/09/23 00:51:06;;;;;;;2.50;1.80;;;;;;;;;;10288121;28;20072;-64
2022/09/23 00:56:07;;;;;;;2.22;2.03;;;;;;;;;;10287849;28;20047;-64
2022/09/23 01:01:06;;;;;;;2.90;1.70;;;;;;;;;;10287595;28;20083;-64
2022/09/23 01:06:05;;;;;;;3.90;2.50;;;;;;;;;;10287395;28;20421;-64
2022/09/23 01:11:10;;;;;;;6.15;3.70;;;;;;;;;;10287251;28;20442;-64
2022/09/23 01:16:13;;;;;;;1.98;1.67;;;;;;;;;;10293390;28;20388;-64
2022/09/23 01:21:17;;;;;;;2.05;1.80;;;;;;;;;;10287673;28;20667;-64
2022/09/23 01:26:27;;;;;;;2.75;1.80;;;;;;;;;;10287886;28;20060;-64
2022/09/23 01:31:32;;;;;;;2.88;1.90;;;;;;;;;;10286734;28;20079;-65
2022/09/23 01:36:36;;;;;;;7.45;3.90;;;;;;;;;;10286574;28;20064;-64
2022/09/23 01:41:43;;;;;;;3.90;2.33;;;;;;;;;;10286847;28;20462;-64
2022/09/23 01:46:48;;;;;;;3.72;2.90;;;;;;;;;;10287107;28;20521;-64
2022/09/23 01:51:48;;;;;;;2.25;1.90;;;;;;;;;;10285974;28;20186;-64
2022/09/23 01:56:50;;;;;;;2.92;1.98;;;;;;;;;;10285877;28;20466;-65
2022/09/23 02:01:54;;;;;;;4.88;2.00;;;;;;;;;;10284003;28;20073;-64
2022/09/23 02:06:56;;;;;;;2.40;2.03;;;;;;;;;;10285101;28;20076;-64
2022/09/23 02:11:59;;;;;;;1.90;1.80;;;;;;;;;;10285135;28;20526;-64
2022/09/23 02:17:01;;;;;;;2.45;1.83;;;;;;;;;;10285662;28;20064;-65
2022/09/23 02:22:01;;;;;;;3.88;1.77;;;;;;;;;;10285324;28;20079;-64
2022/09/23 02:27:03;;;;;;;3.97;1.80;;;;;;;;;;10285366;28;20077;-64
2022/09/23 02:32:07;;;;;;;3.28;2.03;;;;;;;;;;10284720;28;20162;-63
2022/09/23 02:37:10;;;;;;;3.73;1.80;;;;;;;;;;10284634;28;20065;-64
2022/09/23 02:42:09;;;;;;;2.15;1.90;;;;;;;;;;10284541;28;20091;-64
2022/09/23 02:47:09;;;;;;;2.10;1.80;;;;;;;;;;10284498;28;20069;-64
2022/09/23 02:52:07;;;;;;;9.68;2.30;;;;;;;;;;10283384;28;20076;-64
2022/09/23 02:57:07;;;;;;;4.82;2.40;;;;;;;;;;10283273;28;20147;-63
2022/09/23 03:02:20;;;;;;;2.72;2.03;;;;;;;;;;10282338;28;20037;-64
2022/09/23 03:07:20;;;;;;;3.20;2.28;;;;;;;;;;10290231;28;20088;-64
2022/09/23 03:12:21;;;;;;;4.88;2.30;;;;;;;;;;10289968;28;20056;-65
2022/09/23 03:17:25;;;;;;;2.72;2.20;;;;;;;;;;10276116;28;20049;-64
2022/09/23 03:22:26;;;;;;;2.20;2.00;;;;;;;;;;10290140;28;20065;-64
2022/09/23 03:27:27;;;;;;;3.08;2.40;;;;;;;;;;10283427;28;20084;-65
2022/09/23 03:32:28;;;;;;;2.30;1.88;;;;;;;;;;10282486;28;20487;-64
2022/09/23 03:37:30;;;;;;;4.38;2.40;;;;;;;;;;10281898;28;20076;-65
2022/09/23 03:42:30;;;;;;;2.30;2.10;;;;;;;;;;10282637;28;20068;-64
2022/09/23 03:47:30;;;;;;;3.13;2.63;;;;;;;;;;10282387;28;20065;-63
2022/09/23 03:52:28;;;;;;;3.38;2.85;;;;;;;;;;10281926;28;20091;-63
2022/09/23 03:57:26;;;;;;;3.00;2.65;;;;;;;;;;10282311;28;20075;-63
2022/09/23 04:02:25;;;;;;;5.05;2.50;;;;;;;;;;10288523;28;20490;-63
2022/09/23 04:07:25;;;;;;;7.75;2.70;;;;;;;;;;10297043;28;20079;-63
2022/09/23 04:12:23;;;;;;;2.78;2.53;;;;;;;;;;10295383;28;20075;-64
2022/09/23 04:17:22;;;;;;;3.90;2.75;;;;;;;;;;10286686;28;20548;-64
2022/09/23 04:22:20;;;;;;;3.53;3.22;;;;;;;;;;10300077;28;20100;-64
2022/09/23 04:27:20;;;;;;;5.18;2.67;;;;;;;;;;10291836;28;20513;-64
2022/09/23 04:32:18;;;;;;;5.38;2.80;;;;;;;;;;10284086;28;20069;-64
2022/09/23 04:37:16;;;;;;;3.33;3.03;;;;;;;;;;10284934;28;20712;-64
2022/09/23 04:42:15;;;;;;;4.85;2.80;;;;;;;;;;10284710;28;20206;-64
2022/09/23 04:47:14;;;;;;;3.80;2.88;;;;;;;;;;10281700;28;20057;-64
2022/09/23 04:52:13;;;;;;;3.40;3.10;;;;;;;;;;10281676;28;20068;-63
2022/09/23 04:57:11;;;;;;;7.53;5.55;;;;;;;;;;10293782;28;20060;-68
2022/09/23 05:02:10;;;;;;;5.13;2.85;;;;;;;;;;10285076;28;20668;-67
2022/09/23 05:07:10;;;;;;;8.07;3.42;;;;;;;;;;10294644;28;20525;-68
2022/09/23 05:12:09;;;;;;;4.85;3.47;;;;;;;;;;10287810;28;20478;-67
2022/09/23 05:17:07;;;;;;;5.68;3.30;;;;;;;;;;10289660;28;20060;-67
2022/09/23 05:22:05;;;;;;;6.25;3.08;;;;;;;;;;10281736;28;20075;-68
2022/09/23 05:27:06;;;;;;;3.80;2.95;;;;;;;;;;10289342;28;20072;-67
2022/09/23 05:32:05;;;;;;;5.55;3.75;;;;;;;;;;10289386;28;20175;-67
2022/09/23 05:37:04;;;;;;;4.85;3.42;;;;;;;;;;10290413;28;20075;-67
2022/09/23 05:42:02;;;;;;;3.92;3.53;;;;;;;;;;10285725;28;20576;-67
2022/09/23 05:47:02;;;;;;;3.17;2.88;;;;;;;;;;10291752;28;20072;-67
2022/09/23 05:52:00;;;;;;;6.72;3.22;;;;;;;;;;10286703;28;20078;-67
2022/09/23 05:56:58;;;;;;;3.55;2.97;;;;;;;;;;10281966;28;20068;-68
2022/09/23 06:02:03;;;;;;;8.00;5.75;;;;;;;;;;10280991;28;20072;-67
2022/09/23 06:07:01;;;;;;;4.65;3.15;;;;;;;;;;10288740;28;20073;-67
2022/09/23 06:12:00;;;;;;;5.20;4.40;;;;;;;;;;10293970;28;20087;-66
2022/09/23 06:16:59;;;;;;;7.15;4.07;;;;;;;;;;10283718;28;20069;-67
2022/09/23 06:21:58;;;;;;;3.30;3.00;;;;;;;;;;10270338;28;20076;-68
2022/09/23 06:26:57;;;;;;;7.10;4.10;;;;;;;;;;10284009;28;20084;-68
2022/09/23 06:31:55;;;;;;;4.05;3.40;;;;;;;;;;10281528;28;20529;-68
2022/09/23 06:36:54;;;;;;;5.95;4.07;;;;;;;;;;10293172;28;20780;-66
2022/09/23 06:41:54;;;;;;;4.00;3.17;;;;;;;;;;10279996;28;20076;-67
2022/09/23 06:46:57;;;;;;;6.75;3.53;;;;;;;;;;10285222;28;20056;-68
2022/09/23 06:51:55;;;;;;;8.32;3.63;;;;;;;;;;10275976;28;20077;-68
2022/09/23 06:56:55;;;;;;;5.18;3.85;;;;;;;;;;10283270;28;20072;-68
2022/09/23 07:01:53;;;;;;;7.55;3.65;;;;;;;;;;10289285;28;20068;-70
2022/09/23 07:06:53;;;;;;;15.23;6.22;;;;;;;;;;10275514;28;20155;-66
2022/09/23 07:11:51;;;;;;;6.65;4.25;;;;;;;;;;10289629;28;20080;-68
2022/09/23 07:16:52;;;;;;;8.25;4.68;;;;;;;;;;10275950;28;20045;-68
2022/09/23 07:21:50;;;;;;;12.75;6.00;;;;;;;;;;10288659;28;20072;-68
2022/09/23 07:26:48;;;;;;;14.65;7.57;;;;;;;;;;10276135;28;20064;-68
2022/09/23 07:31:47;;;;;;;13.65;5.40;;;;;;;;;;10288791;28;20076;-68
2022/09/23 07:36:46;;;;;;;10.18;4.53;;;;;;;;;;10288217;28;20052;-69
2022/09/23 07:41:44;;;;;;;9.75;5.40;;;;;;;;;;10281861;28;20087;-70
2022/09/23 07:46:43;;;;;;;7.50;4.85;;;;;;;;;;10286846;28;20095;-70
2022/09/23 07:51:44;;;;;;;7.85;4.85;;;;;;;;;;10295100;28;20080;-68
2022/09/23 07:56:44;;;;;;;6.95;4.05;;;;;;;;;;10295202;28;20072;-68
2022/09/23 08:01:43;;;;;;;7.20;4.47;;;;;;;;;;10288102;28;20049;-68
2022/09/23 08:06:42;;;;;;;6.68;4.72;;;;;;;;;;10289299;28;20084;-69
2022/09/23 08:11:41;;;;;;;4.85;4.35;;;;;;;;;;10277047;28;20076;-64
2022/09/23 08:16:41;;;;;;;5.70;4.03;;;;;;;;;;10281021;28;20501;-64
2022/09/23 08:21:40;;;;;;;6.68;4.38;;;;;;;;;;10289161;28;20053;-65
2022/09/23 08:26:39;;;;;;;5.28;4.60;;;;;;;;;;10280237;28;20451;-65
2022/09/23 08:31:37;;;;;;;5.25;4.25;;;;;;;;;;10280987;28;20545;-64
2022/09/23 08:36:37;;;;;;;6.88;4.88;;;;;;;;;;10280954;28;20061;-63
2022/09/23 08:41:38;;;;;;;6.15;5.13;;;;;;;;;;10280840;28;20048;-64
2022/09/23 08:46:39;;;;;;;9.10;5.00;;;;;;;;;;10282967;28;20091;-65
2022/09/23 08:51:43;;;;;;;9.07;5.82;;;;;;;;;;10295452;28;20102;-64
2022/09/23 08:56:42;;;;;;;14.23;11.38;;;;;;;;;;10295543;28;20071;-64
2022/09/23 09:01:41;;;;;;;28.30;23.92;;;;;;;;;;10281381;28;20468;-67
2022/09/23 09:06:45;;;;;;;33.53;28.48;;;;;;;;;;10295077;28;20157;-63
2022/09/23 09:11:52;;;;;;;10.32;7.95;;;;;;;;;;10286610;28;20119;-65
2022/09/23 09:16:55;;;;;;;7.95;7.15;;;;;;;;;;10286621;28;20083;-65
2022/09/23 09:21:59;;;;;;;10.43;7.75;;;;;;;;;;10285711;28;20072;-64
2022/09/23 09:26:57;;;;;;;9.88;5.93;;;;;;;;;;10286864;28;20087;-65
2022/09/23 09:31:57;;;;;;;5.63;5.05;;;;;;;;;;10286857;28;20069;-64
2022/09/23 09:37:05;;;;;;;6.63;5.85;;;;;;;;;;10286273;28;20068;-64
2022/09/23 09:42:05;;;;;;;5.97;5.35;;;;;;;;;;10286205;28;20082;-64
2022/09/23 09:47:20;;;;;;;5.30;4.80;;;;;;;;;;10286270;28;20087;-65
2022/09/23 09:52:22;;;;;;;7.47;6.03;;;;;;;;;;10286029;28;20080;-64
2022/09/23 09:57:29;;;;;;;8.88;6.10;;;;;;;;;;10285880;28;20077;-65
2022/09/23 10:02:35;;;;;;;9.18;6.68;;;;;;;;;;10286752;28;20445;-68
2022/09/23 10:07:35;;;;;;;7.90;5.53;;;;;;;;;;10286268;28;20049;-68
2022/09/23 10:12:43;;;;;;;8.10;5.65;;;;;;;;;;10285622;28;20065;-68
2022/09/23 10:17:41;;;;;;;9.18;5.97;;;;;;;;;;10286214;28;20061;-69
2022/09/23 10:22:41;;;;;;;8.20;5.43;;;;;;;;;;10286425;28;20076;-68
2022/09/23 10:27:39;;;;;;;10.35;6.00;;;;;;;;;;10283394;28;20048;-68
2022/09/23 10:32:43;;;;;;;6.63;6.03;;;;;;;;;;10298310;28;20070;-68
2022/09/23 10:37:45;;;;;;;13.70;8.23;;;;;;;;;;10290362;28;20516;-68
2022/09/23 10:48:11;;;;;;;5.68;3.38;;;;;;;;;;10280781;28;20414;-68
2022/09/23 10:53:17;;;;;;;2.75;2.50;;;;;;;;;;10294998;28;20805;-67
2022/09/23 10:58:34;;;;;;;5.93;3.47;;;;;;;;;;10283055;28;20202;-68
2022/09/23 11:03:45;;;;;;;7.05;3.13;;;;;;;;;;10298845;28;20785;-67
2022/09/23 11:08:54;;;;;;;2.63;2.42;;;;;;;;;;10295917;28;20083;-67
2022/09/23 11:14:03;;;;;;;2.80;2.45;;;;;;;;;;10288952;28;20068;-66
2022/09/23 11:19:21;;;;;;;3.97;2.45;;;;;;;;;;10274460;28;20087;-68
2022/09/23 11:24:32;;;;;;;5.55;3.33;;;;;;;;;;10281945;28;20087;-67
2022/09/23 11:29:45;;;;;;;8.75;2.85;;;;;;;;;;10281123;28;20072;-66
2022/09/23 11:34:54;;;;;;;3.80;2.40;;;;;;;;;;10281680;28;20072;-69
2022/09/23 11:39:57;;;;;;;3.30;3.00;;;;;;;;;;10276017;28;20071;-68
2022/09/23 11:44:58;;;;;;;3.67;3.38;;;;;;;;;;10275013;28;20068;-68
2022/09/23 11:49:58;;;;;;;12.43;3.22;;;;;;;;;;10280670;28;20065;-69
2022/09/23 11:55:01;;;;;;;8.18;3.08;;;;;;;;;;10279594;28;20079;-69
2022/09/23 12:00:14;;;;;;;3.38;2.30;;;;;;;;;;10280806;28;20076;-67
2022/09/23 12:05:16;;;;;;;2.10;1.90;;;;;;;;;;10280583;28;20064;-67
2022/09/23 12:10:16;;;;;;;2.13;1.83;;;;;;;;;;10282129;28;20659;-68
2022/09/23 12:15:19;;;;;;;3.30;2.40;;;;;;;;;;10307103;28;20072;-68
2022/09/23 12:20:27;;;;;;;3.08;2.05;;;;;;;;;;10290941;28;20075;-68
2022/09/23 12:25:45;;;;;;;4.75;2.30;;;;;;;;;;10314753;28;20540;-66
2022/09/23 12:30:45;;;;;;;2.65;1.63;;;;;;;;;;10288639;28;20091;-68
2022/09/23 12:35:45;;;;;;;2.40;2.13;;;;;;;;;;10294212;28;20068;-68
2022/09/23 12:40:44;;;;;;;8.43;2.55;;;;;;;;;;10282356;28;20517;-69
2022/09/23 12:45:42;;;;;;;2.70;2.13;;;;;;;;;;10293602;28;20053;-68
2022/09/23 12:50:52;;;;;;;2.65;2.35;;;;;;;;;;10313921;28;20049;-66
2022/09/23 12:55:51;;;;;;;2.38;2.17;;;;;;;;;;10281632;28;20056;-67
2022/09/23 13:01:05;;;;;;;7.53;5.90;;;;;;;;;;10285165;28;20106;-66
2022/09/23 13:11:24;;;;;;;5.68;3.28;;;;;;;;;;10286999;28;20526;-66
2022/09/23 13:16:25;;;;;;;3.70;2.28;;;;;;;;;;10287295;28;20065;-68
2022/09/23 13:21:42;;;;;;;4.28;2.95;;;;;;;;;;10287909;28;20053;-67
2022/09/23 13:26:44;;;;;;;5.55;2.85;;;;;;;;;;10286001;28;20077;-68
2022/09/23 13:31:43;;;;;;;4.18;3.40;;;;;;;;;;10284805;28;20080;-68
2022/09/23 13:36:45;;;;;;;4.10;3.70;;;;;;;;;;10285208;28;20071;-67
2022/09/23 13:41:45;;;;;;;3.63;2.75;;;;;;;;;;10285517;28;20076;-67
2022/09/23 13:46:45;;;;;;;2.25;2.05;;;;;;;;;;10286273;28;20068;-67
2022/09/23 13:51:44;;;;;;;4.93;2.10;;;;;;;;;;10285790;28;20477;-68
2022/09/23 13:56:48;;;;;;;4.13;2.17;;;;;;;;;;10285536;28;20065;-67
2022/09/23 14:01:47;;;;;;;9.27;6.80;;;;;;;;;;10283338;28;20060;-67
2022/09/23 14:06:46;;;;;;;2.83;1.92;;;;;;;;;;10285308;28;20072;-68
2022/09/23 14:11:44;;;;;;;2.45;1.77;;;;;;;;;;10284831;28;20073;-67
2022/09/23 14:16:43;;;;;;;2.47;2.00;;;;;;;;;;10284952;28;20076;-67
2022/09/23 14:21:42;;;;;;;1.75;1.48;;;;;;;;;;10285222;28;20532;-68
2022/09/23 14:26:42;;;;;;;2.33;1.98;;;;;;;;;;10292491;28;20060;-67
2022/09/23 14:31:41;;;;;;;4.30;1.88;;;;;;;;;;10291167;28;20080;-68
2022/09/23 14:41:57;;;;;;;2.60;2.35;;;;;;;;;;10284027;28;20102;-67
2022/09/23 14:46:56;;;;;;;6.15;2.70;;;;;;;;;;10282326;28;20076;-67
2022/09/23 14:51:55;;;;;;;3.83;2.30;;;;;;;;;;10283710;28;20080;-68
2022/09/23 14:56:54;;;;;;;2.53;2.05;;;;;;;;;;10278169;28;20071;-68
2022/09/23 15:01:54;;;;;;;11.55;5.53;;;;;;;;;;10292112;28;20087;-68
2022/09/23 15:06:53;;;;;;;10.65;7.18;;;;;;;;;;10280975;28;20083;-67
2022/09/23 15:11:52;;;;;;;4.50;2.85;;;;;;;;;;10281903;28;20500;-66
2022/09/23 15:16:51;;;;;;;2.63;2.33;;;;;;;;;;10289720;28;20060;-65
2022/09/23 15:21:53;;;;;;;3.03;2.38;;;;;;;;;;10286668;28;20458;-62
2022/09/23 15:26:51;;;;;;;1.90;1.70;;;;;;;;;;10285612;28;20430;-62
2022/09/23 15:31:49;;;;;;;2.35;1.63;;;;;;;;;;10296445;28;20068;-63
2022/09/23 15:36:48;;;;;;;2.08;1.58;;;;;;;;;;10282193;28;20616;-63
2022/09/23 15:41:48;;;;;;;1.80;1.60;;;;;;;;;;10282097;28;20072;-63
2022/09/23 15:46:47;;;;;;;2.47;2.15;;;;;;;;;;10282653;28;20083;-68
2022/09/23 15:51:46;;;;;;;5.90;2.85;;;;;;;;;;10288885;28;20970;-65
2022/09/23 15:56:44;;;;;;;7.57;2.75;;;;;;;;;;10299410;28;20029;-68
2022/09/23 16:01:44;;;;;;;5.63;1.88;;;;;;;;;;10288449;28;20052;-67
2022/09/23 16:06:43;;;;;;;2.95;1.88;;;;;;;;;;10277261;28;20076;-65
2022/09/23 16:11:44;;;;;;;4.82;1.92;;;;;;;;;;10288435;28;20070;-66
2022/09/23 16:16:46;;;;;;;4.50;2.70;;;;;;;;;;10286758;28;20072;-65
2022/09/23 16:21:44;;;;;;;5.32;2.33;;;;;;;;;;10283164;28;20494;-66
2022/09/23 16:26:44;;;;;;;2.03;1.83;;;;;;;;;;10281495;28;20616;-65
2022/09/23 16:31:43;;;;;;;5.95;2.17;;;;;;;;;;10287385;28;20084;-65
2022/09/23 16:36:43;;;;;;;2.25;1.95;;;;;;;;;;10281992;28;20079;-66
2022/09/23 16:41:42;;;;;;;2.63;1.67;;;;;;;;;;10285197;28;20064;-66
2022/09/23 16:46:41;;;;;;;1.85;1.73;;;;;;;;;;10279649;28;20068;-66
2022/09/23 16:51:41;;;;;;;1.90;1.80;;;;;;;;;;10282110;28;20061;-63
2022/09/23 16:56:44;;;;;;;2.38;2.05;;;;;;;;;;10289267;28;20071;-65
2022/09/23 17:07:00;;;;;;;1.80;1.70;;;;;;;;;;10282885;28;20075;-66
2022/09/23 17:12:03;;;;;;;4.25;3.85;;;;;;;;;;10290614;28;20095;-66
2022/09/23 17:17:01;;;;;;;22.15;18.70;;;;;;;;;;10289858;28;20074;-66
2022/09/23 17:22:01;;;;;;;30.63;24.60;;;;;;;;;;10292573;28;20068;-64
2022/09/23 17:26:59;;;;;;;9.00;7.93;;;;;;;;;;10290030;28;20084;-66
2022/09/23 17:31:57;;;;;;;3.28;2.95;;;;;;;;;;10287853;28;20045;-65
2022/09/23 17:36:56;;;;;;;2.92;2.63;;;;;;;;;;10291137;28;20076;-64
2022/09/23 17:41:56;;;;;;;8.52;5.65;;;;;;;;;;10281886;28;20064;-64
2022/09/23 17:46:54;;;;;;;22.25;12.48;;;;;;;;;;10295235;28;20072;-65
2022/09/23 17:51:52;;;;;;;12.10;5.57;;;;;;;;;;10286301;28;20073;-65
2022/09/23 17:56:51;;;;;;;15.07;6.47;;;;;;;;;;10282181;28;20475;-66
2022/09/23 18:01:50;;;;;;;48.25;20.58;;;;;;;;;;10278287;28;20517;-65
2022/09/23 18:06:49;;;;;;;26.42;13.65;;;;;;;;;;10279652;28;20071;-63
2022/09/23 18:11:48;;;;;;;28.63;14.13;;;;;;;;;;10282281;28;20056;-64
2022/09/23 18:16:48;;;;;;;16.80;10.75;;;;;;;;;;10280519;28;20458;-65
2022/09/23 18:21:50;;;;;;;9.18;5.68;;;;;;;;;;10280972;28;20075;-65
2022/09/23 18:26:49;;;;;;;29.52;15.82;;;;;;;;;;10289972;28;20084;-65
2022/09/23 18:31:49;;;;;;;4.55;3.50;;;;;;;;;;10285923;28;20155;-65
2022/09/23 18:36:49;;;;;;;5.95;3.55;;;;;;;;;;10279316;28;20099;-65
2022/09/23 18:41:48;;;;;;;4.70;3.03;;;;;;;;;;10286210;28;20080;-64
2022/09/23 18:46:47;;;;;;;4.70;2.35;;;;;;;;;;10282332;28;20132;-65
2022/09/23 18:51:51;;;;;;;5.22;3.25;;;;;;;;;;10282207;28;20065;-66
2022/09/23 18:56:51;;;;;;;4.75;3.33;;;;;;;;;;10279249;28;20080;-65
2022/09/23 19:01:49;;;;;;;2.47;2.10;;;;;;;;;;10287387;28;20072;-65
2022/09/23 19:06:49;;;;;;;3.20;2.55;;;;;;;;;;10287108;28;20343;-64
2022/09/23 19:11:50;;;;;;;3.78;2.60;;;;;;;;;;10273509;28;20068;-64
2022/09/23 19:16:49;;;;;;;3.40;2.05;;;;;;;;;;10283681;28;20076;-66
2022/09/23 19:21:48;;;;;;;2.40;2.20;;;;;;;;;;10290637;28;20068;-66
2022/09/23 19:26:49;;;;;;;2.90;2.55;;;;;;;;;;10302680;28;20080;-65
2022/09/23 19:31:48;;;;;;;2.15;1.95;;;;;;;;;;10297755;28;20447;-64
2022/09/23 19:36:46;;;;;;;2.20;2.00;;;;;;;;;;10294704;28;20087;-65
2022/09/23 19:41:45;;;;;;;7.38;4.22;;;;;;;;;;10277034;28;20071;-66
2022/09/23 19:46:48;;;;;;;2.33;2.13;;;;;;;;;;10287896;28;20053;-65
2022/09/23 19:51:54;;;;;;;2.83;2.22;;;;;;;;;;10283820;28;20080;-66
2022/09/23 19:56:53;;;;;;;3.55;2.40;;;;;;;;;;10284354;28;20072;-65
2022/09/23 20:01:53;;;;;;;3.58;2.10;;;;;;;;;;10276360;28;20077;-66
2022/09/23 20:06:51;;;;;;;2.75;2.00;;;;;;;;;;10289917;28;20079;-65
2022/09/23 20:11:49;;;;;;;4.95;2.00;;;;;;;;;;10276001;28;20533;-65
2022/09/23 20:16:48;;;;;;;2.55;1.95;;;;;;;;;;10280804;28;20083;-66
2022/09/23 20:22:23;;;;;;;1.90;1.80;;;;;;;;;;10289060;28;20072;-65
2022/09/23 20:27:10;;;;;;;3.65;2.58;;;;;;;;;;10281397;28;20085;-66
2022/09/23 20:32:10;;;;;;;2.50;2.30;;;;;;;;;;10286021;28;20092;-64
2022/09/23 20:37:10;;;;;;;2.65;2.20;;;;;;;;;;10276378;28;20088;-66
2022/09/23 20:42:08;;;;;;;2.92;2.45;;;;;;;;;;10277873;28;20075;-66
2022/09/23 20:47:06;;;;;;;4.40;2.22;;;;;;;;;;10283980;28;20064;-65
2022/09/23 20:52:06;;;;;;;2.55;2.35;;;;;;;;;;10285746;28;20069;-67
2022/09/23 20:57:11;;;;;;;2.75;2.33;;;;;;;;;;10286490;28;20083;-67
2022/09/23 21:02:09;;;;;;;3.70;2.92;;;;;;;;;;10281261;28;20435;-67
2022/09/23 21:07:09;;;;;;;2.58;2.38;;;;;;;;;;10283113;28;20075;-67
2022/09/23 21:12:08;;;;;;;5.13;2.40;;;;;;;;;;10283178;28;20072;-66
2022/09/23 21:17:06;;;;;;;2.65;2.15;;;;;;;;;;10282150;28;20083;-65
2022/09/23 21:22:05;;;;;;;2.92;2.72;;;;;;;;;;10285570;28;20069;-66
2022/09/23 21:27:03;;;;;;;2.78;2.58;;;;;;;;;;10282850;28;20078;-67
2022/09/23 21:32:03;;;;;;;3.00;2.53;;;;;;;;;;10282393;28;20082;-65
2022/09/23 21:37:02;;;;;;;2.40;2.10;;;;;;;;;;10281066;28;20076;-66
2022/09/23 21:42:00;;;;;;;5.32;2.30;;;;;;;;;;10282220;28;20076;-66
2022/09/23 21:46:58;;;;;;;2.70;2.42;;;;;;;;;;10288820;28;20041;-67
2022/09/23 21:51:59;;;;;;;3.15;2.80;;;;;;;;;;10289117;28;20045;-66
2022/09/23 21:56:59;;;;;;;4.13;2.50;;;;;;;;;;10281342;28;20076;-67
2022/09/23 22:01:58;;;;;;;2.10;1.90;;;;;;;;;;10292670;28;20117;-65
2022/09/23 22:06:58;;;;;;;2.55;2.20;;;;;;;;;;10288753;28;20501;-65
2022/09/23 22:12:08;;;;;;;3.10;2.47;;;;;;;;;;10288897;28;20037;-65
2022/09/23 22:17:09;;;;;;;2.45;2.25;;;;;;;;;;10281356;28;20384;-65
2022/09/23 22:22:11;;;;;;;2.92;2.70;;;;;;;;;;10292792;28;20079;-65
2022/09/23 22:27:10;;;;;;;4.28;2.53;;;;;;;;;;10282151;28;20072;-66
2022/09/23 22:37:39;;;;;;;2.63;2.25;;;;;;;;;;10242301;28;20069;-66
2022/09/23 22:42:40;;;;;;;3.25;2.00;;;;;;;;;;10280136;28;20065;-66
2022/09/23 22:47:39;;;;;;;2.58;2.38;;;;;;;;;;10280628;28;20072;-66
2022/09/23 22:52:39;;;;;;;2.42;2.22;;;;;;;;;;10282638;28;20060;-66
2022/09/23 22:57:37;;;;;;;3.10;2.38;;;;;;;;;;10293292;28;20351;-66
2022/09/23 23:02:35;;;;;;;3.95;2.08;;;;;;;;;;10278284;28;20069;-66
2022/09/23 23:07:34;;;;;;;2.60;2.40;;;;;;;;;;10278005;28;20079;-65
2022/09/23 23:12:34;;;;;;;2.67;2.45;;;;;;;;;;10279420;28;20103;-65
2022/09/23 23:17:33;;;;;;;3.75;2.03;;;;;;;;;;10279160;28;20080;-66
2022/09/23 23:22:31;;;;;;;9.68;2.15;;;;;;;;;;10278612;28;20723;-66
2022/09/23 23:27:29;;;;;;;2.40;2.20;;;;;;;;;;10300820;28;20505;-69
2022/09/23 23:32:29;;;;;;;2.40;1.90;;;;;;;;;;10292723;28;20479;-65
2022/09/23 23:37:28;;;;;;;4.10;1.75;;;;;;;;;;10278342;28;20076;-66
2022/09/23 23:42:27;;;;;;;2.33;2.13;;;;;;;;;;10278373;28;20087;-65
2022/09/23 23:47:25;;;;;;;2.47;2.28;;;;;;;;;;10278663;28;20075;-65
2022/09/23 23:52:24;;;;;;;3.35;1.70;;;;;;;;;;10277787;28;20067;-66
2022/09/23 23:57:23;;;;;;;5.03;1.95;;;;;;;;;;10278380;28;20088;-66
